Time;durP1;ratioP1;P1;durP2;ratioP2;P2;SDS_P1;SDS_P2;PMS_P1;PMS_P2;Temp;Humidity;BMP_temperature;BMP_pressure;BME280_temperature;BME280_humidity;BME280_pressure;Samples;Min_cycle;Max_cycle;Signal;HPM_P1;HPM_P2
2022/12/12 00:02:27;;;;;;;16.20;9.80;;;;;;;-4.63;92.03;95320.93;105810;1281;22517;-79
2022/12/12 00:04:57;;;;;;;17.30;11.90;;;;;;;-4.65;92.27;95322.40;105866;1280;25381;-79
2022/12/12 00:07:26;;;;;;;15.50;7.90;;;;;;;-4.66;92.56;95318.86;104584;1303;1340849;-79
2022/12/12 00:09:54;;;;;;;11.30;7.00;;;;;;;-4.66;92.60;95320.46;105675;1298;39142;-79
2022/12/12 00:12:23;;;;;;;18.70;11.10;;;;;;;-4.68;92.71;95318.25;105765;1303;22486;-79
2022/12/12 00:14:51;;;;;;;13.30;8.00;;;;;;;-4.68;92.85;95314.00;105555;1282;23773;-79
2022/12/12 00:17:20;;;;;;;12.60;7.40;;;;;;;-4.69;92.88;95310.51;105790;1291;22460;-79
2022/12/12 00:19:48;;;;;;;17.20;10.00;;;;;;;-4.70;93.20;95299.83;105755;1304;23477;-79
2022/12/12 00:22:16;;;;;;;11.60;7.90;;;;;;;-4.72;93.23;95305.73;105780;1281;24987;-80
2022/12/12 00:24:45;;;;;;;12.20;6.70;;;;;;;-4.71;93.18;95307.59;105707;1303;22500;-79
2022/12/12 00:27:13;;;;;;;16.20;10.40;;;;;;;-4.71;93.22;95308.42;105590;1303;23673;-79
2022/12/12 00:29:42;;;;;;;15.30;9.30;;;;;;;-4.71;93.42;95305.80;105472;1303;31199;-79
2022/12/12 00:32:14;;;;;;;14.80;6.70;;;;;;;-4.71;93.51;95302.27;105533;1290;22457;-79
2022/12/12 00:34:43;;;;;;;15.10;7.40;;;;;;;-4.71;93.50;95300.99;105562;1303;22786;-79
2022/12/12 00:37:11;;;;;;;13.80;6.40;;;;;;;-4.72;93.56;95303.50;105538;1304;24289;-79
2022/12/12 00:39:39;;;;;;;12.70;7.00;;;;;;;-4.72;93.79;95303.95;105498;1287;24284;-79
2022/12/12 00:42:08;;;;;;;14.60;7.60;;;;;;;-4.73;93.75;95301.19;105540;1281;22469;-79
2022/12/12 00:44:36;;;;;;;11.10;7.70;;;;;;;-4.74;93.98;95295.55;105548;1297;22489;-79
2022/12/12 00:47:05;;;;;;;16.00;8.60;;;;;;;-4.75;94.11;95301.71;105521;1281;25395;-79
2022/12/12 00:49:33;;;;;;;12.50;6.50;;;;;;;-4.75;94.19;95294.36;105479;1299;25216;-79
2022/12/12 00:52:05;;;;;;;9.20;5.60;;;;;;;-4.76;94.34;95292.02;105542;1304;22506;-79
2022/12/12 00:54:33;;;;;;;13.60;7.50;;;;;;;-4.76;94.21;95287.46;105564;1274;22504;-79
2022/12/12 00:57:04;;;;;;;11.90;6.60;;;;;;;-4.78;94.45;95294.51;105560;1303;23009;-79
2022/12/12 00:59:32;;;;;;;10.80;6.20;;;;;;;-4.79;94.51;95289.33;105502;1303;31754;-79
2022/12/12 01:02:01;;;;;;;15.40;8.50;;;;;;;-4.80;94.57;95293.76;105564;1297;22493;-79
2022/12/12 01:04:29;;;;;;;14.40;7.30;;;;;;;-4.80;94.76;95295.50;105548;1303;22513;-79
2022/12/12 01:06:57;;;;;;;12.40;6.60;;;;;;;-4.81;94.80;95301.68;105540;1304;23053;-79
2022/12/12 01:09:26;;;;;;;11.10;6.40;;;;;;;-4.83;94.95;95302.61;105453;1294;44725;-79
2022/12/12 01:11:54;;;;;;;16.50;10.20;;;;;;;-4.84;94.96;95298.02;105505;1281;24057;-79
2022/12/12 01:14:22;;;;;;;15.30;8.20;;;;;;;-4.86;95.12;95299.67;105506;1288;22898;-79
2022/12/12 01:16:51;;;;;;;12.40;6.20;;;;;;;-4.86;95.09;95298.35;105568;1296;22564;-79
2022/12/12 01:19:19;;;;;;;11.00;6.40;;;;;;;-4.87;95.09;95297.94;105544;1304;23302;-79
2022/12/12 01:21:47;;;;;;;13.50;8.40;;;;;;;-4.87;95.05;95295.39;105509;1287;22492;-79
2022/12/12 01:24:16;;;;;;;10.20;5.50;;;;;;;-4.86;94.98;95296.13;105504;1304;24273;-79
2022/12/12 01:26:44;;;;;;;13.10;7.00;;;;;;;-4.86;95.06;95295.85;105546;1297;22555;-79
2022/12/12 01:29:12;;;;;;;15.10;7.90;;;;;;;-4.87;95.17;95284.25;105483;1280;22820;-79
2022/12/12 01:31:41;;;;;;;8.80;5.20;;;;;;;-4.87;95.05;95290.45;105540;1304;24233;-78
2022/12/12 01:34:10;;;;;;;11.00;6.00;;;;;;;-4.88;95.07;95289.75;105480;1294;27259;-79
2022/12/12 01:36:38;;;;;;;15.00;8.60;;;;;;;-4.90;95.11;95287.63;105571;1280;22458;-79
2022/12/12 01:39:06;;;;;;;11.50;5.40;;;;;;;-4.91;95.24;95280.48;105499;1304;25817;-79
2022/12/12 01:41:35;;;;;;;12.10;6.90;;;;;;;-4.91;94.94;95284.86;105793;1281;22526;-79
2022/12/12 01:44:11;;;;;;;17.30;8.70;;;;;;;-4.92;95.15;95280.02;105807;1294;22475;-78
2022/12/12 01:46:43;;;;;;;10.00;5.90;;;;;;;-4.93;95.00;95285.89;105725;1296;25539;-79
2022/12/12 01:49:20;;;;;;;10.60;4.90;;;;;;;-4.91;94.95;95284.05;105726;1280;23853;-79
2022/12/12 01:51:56;;;;;;;8.50;5.40;;;;;;;-4.90;94.89;95287.31;105661;1303;22505;-78
2022/12/12 01:54:29;;;;;;;11.80;6.70;;;;;;;-4.91;94.93;95286.21;105676;1294;22524;-79
2022/12/12 01:57:00;;;;;;;9.30;4.90;;;;;;;-4.91;94.83;95289.42;105795;1280;22499;-79
2022/12/12 01:59:33;;;;;;;9.60;5.70;;;;;;;-4.88;94.87;95291.98;105723;1303;27226;-79
2022/12/12 02:02:05;;;;;;;12.00;5.10;;;;;;;-4.89;94.86;95284.83;105783;1304;23085;-78
2022/12/12 02:04:34;;;;;;;8.10;4.60;;;;;;;-4.89;94.93;95286.78;105656;1302;22539;-79
2022/12/12 02:07:05;;;;;;;18.90;9.90;;;;;;;-4.90;94.91;95284.89;105571;1288;22463;-79
2022/12/12 02:09:35;;;;;;;9.00;5.20;;;;;;;-4.90;94.96;95285.88;105611;1303;24238;-78
2022/12/12 02:12:04;;;;;;;10.80;6.20;;;;;;;-4.90;94.90;95283.46;105752;1297;22615;-79
2022/12/12 02:14:37;;;;;;;18.20;9.00;;;;;;;-4.90;94.83;95288.51;105777;1282;22518;-79
2022/12/12 02:17:37;;;;;;;10.50;5.00;;;;;;;-4.89;94.92;95283.16;105803;1298;25390;-79
2022/12/12 02:20:33;;;;;;;11.90;5.80;;;;;;;-4.89;95.07;95278.10;105709;1289;26596;-79
2022/12/12 02:23:41;;;;;;;11.60;6.10;;;;;;;-4.88;95.12;95278.66;105787;1303;22489;-79
2022/12/12 02:26:47;;;;;;;12.20;6.50;;;;;;;-4.88;95.05;95282.48;105690;1303;22482;-79
2022/12/12 02:29:40;;;;;;;12.30;5.60;;;;;;;-4.87;95.12;95278.61;105389;1294;27388;-79
2022/12/12 02:32:16;;;;;;;10.40;5.20;;;;;;;-4.87;95.10;95273.24;105515;1303;22491;-79
2022/12/12 02:34:51;;;;;;;10.30;5.50;;;;;;;-4.87;95.16;95269.06;105516;1290;22516;-79
2022/12/12 02:37:28;;;;;;;8.70;4.80;;;;;;;-4.87;95.08;95268.51;105556;1303;22492;-79
2022/12/12 02:40:17;;;;;;;8.80;4.30;;;;;;;-4.86;95.08;95264.99;105513;1298;22481;-79
2022/12/12 02:42:54;;;;;;;12.60;8.00;;;;;;;-4.87;95.26;95259.64;105547;1303;22509;-79
2022/12/12 02:45:29;;;;;;;9.60;5.00;;;;;;;-4.87;95.13;95260.36;105552;1297;22465;-79
2022/12/12 02:48:04;;;;;;;10.50;6.40;;;;;;;-4.88;95.31;95262.20;105531;1303;22592;-79
2022/12/12 02:50:37;;;;;;;12.10;7.20;;;;;;;-4.88;95.16;95259.41;105596;1281;22450;-79
2022/12/12 02:53:06;;;;;;;8.70;4.70;;;;;;;-4.88;95.49;95258.90;105769;1302;24069;-79
2022/12/12 02:55:34;;;;;;;6.90;4.60;;;;;;;-4.88;95.51;95260.52;105844;1280;23876;-79
2022/12/12 02:58:04;;;;;;;11.10;5.50;;;;;;;-4.88;95.56;95248.67;105803;1298;22513;-79
2022/12/12 03:00:42;;;;;;;8.20;5.30;;;;;;;-4.87;95.55;95249.83;105588;1303;24066;-79
2022/12/12 03:09:32;;;;;;;12.20;6.60;;;;;;;-4.90;95.51;95254.19;105529;1302;34175;-79
2022/12/12 03:12:10;;;;;;;14.10;8.40;;;;;;;-4.90;95.37;95254.83;105634;1282;22502;-79
2022/12/12 03:14:49;;;;;;;11.00;6.60;;;;;;;-4.90;95.35;95256.94;105674;1296;22896;-79
2022/12/12 03:17:28;;;;;;;12.40;7.70;;;;;;;-4.90;95.34;95254.39;105731;1304;22855;-79
2022/12/12 03:20:03;;;;;;;14.00;7.90;;;;;;;-4.90;95.46;95254.91;105751;1298;24633;-79
2022/12/12 03:22:38;;;;;;;12.20;5.80;;;;;;;-4.89;95.35;95257.36;105815;1298;22468;-79
2022/12/12 03:25:16;;;;;;;10.60;6.80;;;;;;;-4.89;95.36;95258.98;105707;1303;22485;-79
2022/12/12 03:27:51;;;;;;;12.00;7.70;;;;;;;-4.89;95.38;95264.40;105775;1303;22454;-79
2022/12/12 03:30:20;;;;;;;12.60;6.40;;;;;;;-4.91;95.37;95257.54;105796;1274;23206;-79
2022/12/12 03:32:58;;;;;;;12.20;7.50;;;;;;;-4.92;95.53;95264.14;105738;1291;22468;-78
2022/12/12 03:35:32;;;;;;;11.30;6.60;;;;;;;-4.93;95.58;95257.16;105737;1286;22711;-79
2022/12/12 03:38:06;;;;;;;10.50;6.10;;;;;;;-4.93;95.90;95256.11;105754;1289;22470;-79
2022/12/12 03:40:40;;;;;;;7.20;4.00;;;;;;;-4.94;95.88;95261.25;105712;1296;24954;-79
2022/12/12 03:43:13;;;;;;;11.80;6.50;;;;;;;-4.95;95.93;95261.22;105813;1301;22516;-78
2022/12/12 03:45:49;;;;;;;12.90;6.80;;;;;;;-4.97;95.75;95259.92;105817;1293;22524;-79
2022/12/12 03:48:24;;;;;;;14.00;8.60;;;;;;;-4.97;95.87;95270.52;105801;1289;22508;-79
2022/12/12 03:50:57;;;;;;;12.90;7.30;;;;;;;-4.97;95.82;95267.72;105756;1304;23417;-79
2022/12/12 03:53:33;;;;;;;12.70;7.60;;;;;;;-4.95;95.58;95260.06;105813;1288;22473;-78
2022/12/12 03:56:07;;;;;;;7.70;4.60;;;;;;;-4.96;95.51;95261.32;105679;1303;22710;-78
2022/12/12 03:58:41;;;;;;;11.90;7.80;;;;;;;-4.99;95.22;95255.06;105652;1303;23162;-78
2022/12/12 04:01:12;;;;;;;12.60;7.20;;;;;;;-5.02;95.21;95257.21;105744;1302;25279;-79
2022/12/12 04:03:52;;;;;;;10.00;5.00;;;;;;;-5.07;95.31;95256.10;105775;1286;22492;-79
2022/12/12 04:06:30;;;;;;;12.00;7.70;;;;;;;-5.12;95.17;95255.86;105691;1303;22487;-79
2022/12/12 04:15:01;;;;;;;11.80;5.90;;;;;;;-5.07;94.97;95252.11;105815;1304;22470;-79
2022/12/12 04:17:39;;;;;;;12.10;7.40;;;;;;;-5.10;94.89;95255.14;105650;1282;22546;-79
2022/12/12 04:23:16;;;;;;;12.40;7.10;;;;;;;-5.12;94.98;95255.70;105582;1303;22504;-79
2022/12/12 04:29:01;;;;;;;13.20;7.70;;;;;;;-5.09;94.80;95259.45;105634;1286;26314;-79
2022/12/12 04:31:33;;;;;;;14.70;6.80;;;;;;;-5.09;94.83;95265.61;105773;1285;23157;-79
2022/12/12 04:34:07;;;;;;;11.40;6.70;;;;;;;-5.08;94.92;95269.73;105764;1303;23249;-79
2022/12/12 04:36:36;;;;;;;13.90;7.40;;;;;;;-5.05;94.81;95267.34;105782;1294;22547;-79
2022/12/12 04:39:07;;;;;;;9.90;6.40;;;;;;;-5.02;94.77;95271.92;105721;1281;44728;-80
2022/12/12 04:41:39;;;;;;;6.60;4.00;;;;;;;-5.02;94.80;95272.33;105791;1282;22467;-79
2022/12/12 04:44:12;;;;;;;10.90;6.40;;;;;;;-5.00;94.92;95268.83;105789;1304;23966;-79
2022/12/12 04:46:42;;;;;;;10.10;5.90;;;;;;;-4.99;94.64;95268.14;105794;1304;22492;-79
2022/12/12 04:49:17;;;;;;;13.30;7.60;;;;;;;-4.97;94.65;95267.77;105742;1303;22469;-80
2022/12/12 04:51:52;;;;;;;13.30;8.20;;;;;;;-4.97;94.60;95269.16;105806;1303;24323;-79
2022/12/12 04:54:28;;;;;;;15.10;8.40;;;;;;;-4.97;94.62;95273.10;105677;1303;23938;-79
2022/12/12 04:57:01;;;;;;;10.20;4.90;;;;;;;-4.96;94.75;95275.30;105789;1296;22469;-79
2022/12/12 04:59:30;;;;;;;10.80;5.60;;;;;;;-4.93;94.52;95270.46;105632;1288;22472;-79
2022/12/12 05:02:08;;;;;;;13.20;7.00;;;;;;;-4.93;94.65;95277.70;105744;1288;24009;-79
2022/12/12 05:04:44;;;;;;;9.00;5.70;;;;;;;-4.92;94.61;95281.84;105556;1291;22506;-79
2022/12/12 05:07:17;;;;;;;14.00;8.70;;;;;;;-4.92;94.74;95277.83;105643;1303;22460;-79
2022/12/12 05:09:47;;;;;;;11.00;5.90;;;;;;;-4.91;94.59;95281.24;105714;1304;45897;-79
2022/12/12 05:12:16;;;;;;;15.30;7.30;;;;;;;-4.91;94.71;95282.39;105799;1295;22496;-79
2022/12/12 05:14:44;;;;;;;12.10;5.70;;;;;;;-4.91;94.50;95278.73;105812;1300;22442;-79
2022/12/12 05:17:17;;;;;;;13.40;8.00;;;;;;;-4.90;94.42;95280.55;105793;1288;22525;-79
2022/12/12 05:19:45;;;;;;;12.00;8.20;;;;;;;-4.90;94.59;95278.69;105726;1304;30082;-79
2022/12/12 05:22:13;;;;;;;11.50;6.50;;;;;;;-4.90;94.46;95280.91;105806;1302;22800;-79
2022/12/12 05:24:42;;;;;;;13.80;6.50;;;;;;;-4.91;94.60;95276.66;105763;1299;22508;-79
2022/12/12 05:27:11;;;;;;;9.90;6.20;;;;;;;-4.91;94.40;95277.98;105768;1280;22505;-79
2022/12/12 05:29:40;;;;;;;13.30;7.50;;;;;;;-4.92;94.71;95279.50;105784;1289;24159;-79
2022/12/12 05:32:08;;;;;;;12.90;8.10;;;;;;;-4.93;94.52;95277.34;105731;1302;22500;-79
2022/12/12 05:34:43;;;;;;;11.90;7.70;;;;;;;-4.94;94.62;95282.29;105672;1302;24246;-79
2022/12/12 05:37:11;;;;;;;15.50;8.10;;;;;;;-4.93;94.67;95282.71;105812;1302;22498;-79
2022/12/12 05:39:39;;;;;;;10.90;7.20;;;;;;;-4.91;94.78;95286.57;105653;1294;22519;-79
2022/12/12 05:42:08;;;;;;;12.40;7.80;;;;;;;-4.90;94.74;95285.92;105512;1305;22637;-79
2022/12/12 05:44:36;;;;;;;11.20;6.50;;;;;;;-4.92;94.68;95283.88;105559;1305;22558;-79
2022/12/12 05:47:05;;;;;;;11.70;6.20;;;;;;;-4.92;94.73;95282.23;105579;1304;22503;-79
2022/12/12 05:49:34;;;;;;;11.90;6.70;;;;;;;-4.95;94.75;95283.60;105482;1290;27402;-79
2022/12/12 05:52:04;;;;;;;12.20;5.10;;;;;;;-4.97;94.99;95286.06;105508;1306;23145;-79
2022/12/12 05:54:33;;;;;;;11.70;6.60;;;;;;;-4.98;94.96;95288.52;105537;1305;26929;-79
2022/12/12 05:57:02;;;;;;;9.40;4.80;;;;;;;-4.98;95.12;95288.58;105533;1305;22567;-79
2022/12/12 05:59:30;;;;;;;9.10;5.50;;;;;;;-4.98;95.20;95288.52;105458;1300;41885;-79
2022/12/12 06:01:59;;;;;;;11.40;7.20;;;;;;;-4.98;95.15;95295.41;105579;1286;22512;-79
2022/12/12 06:04:27;;;;;;;14.30;8.40;;;;;;;-4.95;95.16;95296.05;105573;1306;25221;-79
2022/12/12 06:06:56;;;;;;;7.10;4.70;;;;;;;-4.92;95.26;95294.48;105569;1276;22463;-79
2022/12/12 06:09:25;;;;;;;8.80;5.10;;;;;;;-4.92;95.28;95299.40;105372;1293;49942;-79
2022/12/12 06:11:54;;;;;;;12.00;6.40;;;;;;;-4.93;95.24;95298.21;105219;1292;25343;-78
2022/12/12 06:14:22;;;;;;;13.50;7.70;;;;;;;-4.93;95.14;95298.02;105209;1294;26658;-79
2022/12/12 06:16:51;;;;;;;12.30;7.20;;;;;;;-4.93;95.17;95300.71;105249;1297;23851;-78
2022/12/12 06:19:20;;;;;;;11.30;5.10;;;;;;;-4.92;95.38;95308.73;105104;1297;59656;-79
2022/12/12 06:21:49;;;;;;;10.90;5.90;;;;;;;-4.90;95.14;95310.05;105193;1306;22544;-79
2022/12/12 06:24:18;;;;;;;13.70;6.90;;;;;;;-4.91;95.29;95312.38;105226;1293;22512;-79
2022/12/12 06:26:47;;;;;;;12.30;7.40;;;;;;;-4.92;95.34;95314.56;105184;1301;23268;-79
2022/12/12 06:29:16;;;;;;;12.70;7.40;;;;;;;-4.90;95.52;95317.98;105112;1305;42477;-79
2022/12/12 06:31:45;;;;;;;11.30;6.20;;;;;;;-4.92;95.65;95316.34;105215;1291;22552;-78
2022/12/12 06:34:14;;;;;;;12.40;6.40;;;;;;;-4.93;95.63;95322.42;105182;1294;22517;-79
2022/12/12 06:36:43;;;;;;;13.20;8.50;;;;;;;-4.93;95.88;95321.63;105200;1296;23939;-78
2022/12/12 06:39:14;;;;;;;10.30;5.10;;;;;;;-4.94;95.92;95319.13;105123;1305;49364;-79
2022/12/12 06:41:43;;;;;;;12.70;5.80;;;;;;;-4.93;95.94;95323.90;105211;1305;24255;-79
2022/12/12 06:44:12;;;;;;;12.40;7.60;;;;;;;-4.93;95.95;95325.05;105239;1290;22471;-79
2022/12/12 06:46:40;;;;;;;10.80;5.80;;;;;;;-4.91;96.14;95326.73;105242;1303;22727;-79
2022/12/12 06:49:09;;;;;;;16.10;9.80;;;;;;;-4.91;96.12;95324.92;105102;1281;42075;-79
2022/12/12 06:51:42;;;;;;;14.40;8.60;;;;;;;-4.89;95.92;95331.23;105323;1295;22460;-79
2022/12/12 06:54:12;;;;;;;11.80;8.30;;;;;;;-4.86;95.97;95329.09;105427;1299;22782;-78
2022/12/12 06:56:43;;;;;;;12.10;7.90;;;;;;;-4.86;96.16;95331.67;105337;1303;21997;-79
2022/12/12 06:59:15;;;;;;;12.70;7.90;;;;;;;-4.84;96.21;95329.35;105391;1304;43818;-79
2022/12/12 07:01:44;;;;;;;14.80;8.90;;;;;;;-4.80;96.11;95332.21;105391;1296;22834;-79
2022/12/12 07:04:14;;;;;;;11.70;7.50;;;;;;;-4.77;96.17;95329.10;105468;1304;22448;-79
2022/12/12 07:06:42;;;;;;;14.20;8.60;;;;;;;-4.76;96.11;95330.64;105472;1285;23038;-79
2022/12/12 07:09:11;;;;;;;15.50;8.10;;;;;;;-4.75;96.01;95330.73;105548;1294;23113;-79
2022/12/12 07:11:40;;;;;;;13.60;8.10;;;;;;;-4.74;96.05;95333.73;105777;1285;22843;-79
2022/12/12 07:14:10;;;;;;;14.40;8.90;;;;;;;-4.75;96.08;95333.92;105803;1295;22501;-79
2022/12/12 07:16:40;;;;;;;15.20;9.30;;;;;;;-4.73;96.03;95336.05;105795;1286;23076;-79
2022/12/12 07:19:10;;;;;;;12.00;7.90;;;;;;;-4.70;95.98;95339.45;105765;1291;24736;-79
2022/12/12 07:21:39;;;;;;;13.20;8.70;;;;;;;-4.67;95.88;95338.45;105803;1294;22469;-79
2022/12/12 07:24:08;;;;;;;11.70;7.10;;;;;;;-4.64;95.82;95335.97;105801;1288;22474;-79
2022/12/12 07:26:37;;;;;;;16.40;9.30;;;;;;;-4.61;95.86;95338.73;105803;1294;23243;-79
2022/12/12 07:29:05;;;;;;;12.50;7.10;;;;;;;-4.62;95.69;95337.42;105724;1294;23353;-79
2022/12/12 07:31:34;;;;;;;13.60;8.90;;;;;;;-4.60;95.86;95341.61;105799;1292;23774;-79
2022/12/12 07:34:02;;;;;;;12.20;6.60;;;;;;;-4.56;95.72;95344.83;105805;1294;25235;-79
2022/12/12 07:36:32;;;;;;;12.80;8.00;;;;;;;-4.55;95.54;95343.19;105793;1295;22462;-79
2022/12/12 07:39:00;;;;;;;14.00;9.00;;;;;;;-4.55;95.44;95341.55;105770;1296;24272;-79
2022/12/12 07:41:29;;;;;;;11.30;6.20;;;;;;;-4.55;95.44;95340.35;105827;1294;23074;-79
2022/12/12 07:43:59;;;;;;;15.80;8.80;;;;;;;-4.53;95.48;95344.48;105788;1302;22900;-79
2022/12/12 07:46:28;;;;;;;15.20;9.90;;;;;;;-4.52;95.42;95342.66;105789;1302;22473;-79
2022/12/12 07:48:56;;;;;;;14.30;8.80;;;;;;;-4.48;95.47;95346.15;105757;1286;23156;-79
2022/12/12 07:51:25;;;;;;;8.90;4.70;;;;;;;-4.40;95.50;95342.39;105711;1295;23704;-79
2022/12/12 07:53:53;;;;;;;12.70;8.10;;;;;;;-4.34;95.31;95348.40;105808;1292;23223;-79
2022/12/12 07:56:21;;;;;;;14.70;9.00;;;;;;;-4.31;95.33;95343.42;105764;1284;22717;-79
2022/12/12 07:58:52;;;;;;;13.30;9.10;;;;;;;-4.28;95.11;95345.05;105783;1287;22546;-79
2022/12/12 08:01:23;;;;;;;10.60;6.20;;;;;;;-4.25;95.01;95342.66;105736;1293;22487;-79
2022/12/12 08:03:53;;;;;;;15.60;9.90;;;;;;;-4.20;95.24;95342.38;105801;1303;25309;-79
2022/12/12 08:06:23;;;;;;;13.10;7.90;;;;;;;-4.13;95.23;95345.29;105794;1304;23776;-78
2022/12/12 08:08:53;;;;;;;;;;;;;;;-4.06;95.19;95342.02;105332;1285;22471;-78
2022/12/12 08:11:24;;;;;;;8.40;5.00;;;;;;;-3.99;95.07;95343.91;105437;1296;25084;-78
2022/12/12 08:13:53;;;;;;;14.20;8.80;;;;;;;-3.99;95.41;95346.41;105776;1302;22508;-81
2022/12/12 08:16:24;;;;;;;17.80;10.30;;;;;;;-3.98;95.99;95344.42;105786;1296;22603;-79
2022/12/12 08:18:55;;;;;;;13.30;7.70;;;;;;;-3.93;96.10;95343.08;105804;1291;23725;-78
2022/12/12 08:21:24;;;;;;;8.00;4.90;;;;;;;-3.87;95.98;95348.75;105760;1291;22516;-78
2022/12/12 08:23:56;;;;;;;13.60;8.10;;;;;;;-3.85;95.63;95353.51;105699;1296;22860;-78
2022/12/12 08:26:25;;;;;;;14.80;9.40;;;;;;;-3.83;95.34;95355.10;105806;1294;22559;-77
2022/12/12 08:28:54;;;;;;;14.30;9.40;;;;;;;-3.82;95.11;95350.11;105746;1299;22046;-78
2022/12/12 08:31:23;;;;;;;13.80;8.90;;;;;;;-3.79;94.98;95357.70;105524;1293;23826;-78
2022/12/12 08:33:52;;;;;;;12.30;7.70;;;;;;;-3.76;94.72;95356.77;105563;1285;22501;-77
2022/12/12 08:36:24;;;;;;;10.80;6.20;;;;;;;-3.76;94.42;95362.88;105588;1290;23115;-78
2022/12/12 08:38:53;;;;;;;17.60;10.30;;;;;;;-3.74;94.08;95360.60;105624;1295;22507;-78
2022/12/12 08:41:22;;;;;;;15.10;7.90;;;;;;;-3.70;93.80;95362.35;105765;1292;22529;-79
2022/12/12 08:43:54;;;;;;;13.50;7.30;;;;;;;-3.61;94.00;95361.52;105732;1292;25828;-79
2022/12/12 08:46:22;;;;;;;10.60;6.70;;;;;;;-3.50;93.53;95357.70;105778;1284;22488;-78
2022/12/12 08:48:54;;;;;;;16.40;10.10;;;;;;;-3.52;93.12;95353.17;105833;1278;25707;-79
2022/12/12 08:51:23;;;;;;;16.90;10.50;;;;;;;-3.51;92.93;95352.17;105723;1282;24256;-79
2022/12/12 08:53:54;;;;;;;12.40;8.60;;;;;;;-3.52;92.62;95356.64;105729;1299;25457;-82
2022/12/12 08:56:24;;;;;;;10.60;7.10;;;;;;;-3.46;92.79;95357.84;105786;1285;22511;-82
2022/12/12 08:58:53;;;;;;;16.90;9.80;;;;;;;-3.41;92.81;95359.67;105787;1285;38723;-83
2022/12/12 09:01:27;;;;;;;14.70;9.90;;;;;;;-3.40;92.43;95363.27;105734;1280;22473;-84
2022/12/12 09:03:56;;;;;;;13.40;8.00;;;;;;;-3.37;92.40;95363.21;105581;1288;22454;-83
2022/12/12 09:06:26;;;;;;;16.00;8.80;;;;;;;-3.42;91.96;95357.10;105717;1303;24889;-83
2022/12/12 09:08:56;;;;;;;15.70;10.40;;;;;;;-3.44;91.92;95358.20;105782;1299;40489;-81
2022/12/12 09:11:25;;;;;;;16.60;10.10;;;;;;;-3.45;91.84;95355.28;105643;1296;25384;-83
2022/12/12 09:13:57;;;;;;;17.50;10.90;;;;;;;-3.49;91.52;95354.03;105752;1304;22428;-83
2022/12/12 09:16:28;;;;;;;16.10;9.70;;;;;;;-3.55;91.34;95358.07;105623;1296;22854;-83
2022/12/12 09:18:59;;;;;;;14.70;8.40;;;;;;;-3.54;91.79;95358.91;105772;1288;22527;-83
2022/12/12 09:21:28;;;;;;;9.40;5.90;;;;;;;-3.52;91.87;95353.06;104479;1299;1833967;-83
2022/12/12 09:24:00;;;;;;;20.70;12.40;;;;;;;-3.56;91.50;95359.92;105790;1292;22468;-83
2022/12/12 09:26:29;;;;;;;15.10;10.10;;;;;;;-3.50;91.94;95358.98;105806;1292;22512;-84
2022/12/12 09:28:59;;;;;;;18.90;12.30;;;;;;;-3.48;91.70;95358.47;105783;1281;22506;-83
2022/12/12 09:31:29;;;;;;;17.60;12.00;;;;;;;-3.46;91.70;95361.92;105922;1294;33540;-81
2022/12/12 09:33:57;;;;;;;14.30;8.10;;;;;;;-3.40;91.93;95361.98;105715;1292;22530;-83
2022/12/12 09:36:26;;;;;;;14.80;8.20;;;;;;;-3.38;91.55;95366.70;105798;1291;22545;-82
2022/12/12 09:38:55;;;;;;;17.30;10.20;;;;;;;-3.38;91.37;95362.02;105721;1295;24099;-82
2022/12/12 09:41:26;;;;;;;18.30;12.00;;;;;;;-3.39;91.30;95362.04;105778;1295;23155;-83
2022/12/12 09:43:59;;;;;;;19.30;11.10;;;;;;;-3.38;91.25;95358.16;105697;1305;22495;-82
2022/12/12 09:46:34;;;;;;;18.40;11.00;;;;;;;-3.36;91.43;95359.45;105768;1304;22491;-83
2022/12/12 09:49:22;;;;;;;15.80;12.20;;;;;;;-3.33;91.41;95357.70;105712;1285;45124;-82
2022/12/12 09:51:52;;;;;;;16.70;11.10;;;;;;;-3.24;91.57;95362.27;105789;1292;23808;-81
2022/12/12 09:54:23;;;;;;;18.40;12.20;;;;;;;-3.20;91.56;95359.90;105794;1299;24257;-81
2022/12/12 09:57:04;;;;;;;22.50;13.80;;;;;;;-3.11;91.66;95359.31;105671;1292;22471;-81
2022/12/12 09:59:40;;;;;;;16.00;10.40;;;;;;;-3.05;91.58;95360.70;105690;1294;37423;-83
2022/12/12 10:02:34;;;;;;;20.40;12.50;;;;;;;-3.12;91.38;95357.73;105680;1293;22478;-83
2022/12/12 10:05:08;;;;;;;15.30;10.10;;;;;;;-3.12;91.32;95357.84;105741;1305;23554;-84
2022/12/12 10:07:41;;;;;;;19.40;10.40;;;;;;;-3.14;91.09;95360.84;105790;1294;22457;-84
2022/12/12 10:10:21;;;;;;;16.70;11.50;;;;;;;-3.19;91.10;95358.25;105733;1304;22462;-85
2022/12/12 10:12:50;;;;;;;18.40;11.70;;;;;;;-3.18;91.25;95360.76;105773;1302;24242;-82
2022/12/12 10:15:29;;;;;;;13.80;9.70;;;;;;;-3.18;91.25;95361.42;105730;1302;22572;-82
2022/12/12 10:18:04;;;;;;;16.50;11.50;;;;;;;-3.13;91.55;95363.21;105738;1302;24286;-83
2022/12/12 10:20:42;;;;;;;18.00;10.80;;;;;;;-3.05;91.71;95359.06;105631;1302;27488;-83
2022/12/12 10:23:19;;;;;;;14.90;9.60;;;;;;;-2.95;91.58;95354.92;105927;1304;23145;-83
2022/12/12 10:25:52;;;;;;;9.60;6.60;;;;;;;-2.91;91.32;95355.99;107444;1296;22127;-82
2022/12/12 10:28:23;;;;;;;16.90;10.60;;;;;;;-3.01;90.73;95356.65;107459;1295;22266;-83
2022/12/12 10:31:16;;;;;;;14.70;8.40;;;;;;;-3.02;90.73;95356.46;107405;1291;22138;-83
2022/12/12 10:34:02;;;;;;;11.70;7.80;;;;;;;-3.05;90.76;95357.04;107102;1299;22198;-81
2022/12/12 10:37:05;;;;;;;20.50;10.40;;;;;;;-3.09;90.69;95359.77;106879;1296;22554;-81
2022/12/12 10:39:42;;;;;;;17.00;10.40;;;;;;;-3.11;90.75;95359.63;105732;1300;43331;-81
2022/12/12 10:42:20;;;;;;;17.60;11.50;;;;;;;-3.10;90.84;95356.66;105653;1295;22930;-81
2022/12/12 10:45:18;;;;;;;12.30;7.10;;;;;;;-3.00;91.29;95356.73;105695;1302;22508;-81
2022/12/12 10:47:49;;;;;;;15.20;10.40;;;;;;;-2.97;91.05;95352.77;105801;1294;22483;-80
2022/12/12 10:50:25;;;;;;;20.90;11.20;;;;;;;-3.06;90.75;95354.54;105752;1296;22847;-80
2022/12/12 10:52:54;;;;;;;14.70;9.30;;;;;;;-3.07;91.11;95356.36;105786;1282;22474;-81
2022/12/12 10:55:29;;;;;;;19.40;12.30;;;;;;;-3.09;91.07;95351.75;105792;1299;22468;-80
2022/12/12 10:58:02;;;;;;;15.60;10.40;;;;;;;-3.15;91.11;95350.84;105716;1284;22510;-80
2022/12/12 11:00:35;;;;;;;16.30;11.20;;;;;;;-3.15;91.28;95354.35;105699;1296;46039;-81
2022/12/12 11:03:25;;;;;;;16.50;10.10;;;;;;;-3.14;91.29;95355.30;105770;1297;23159;-82
2022/12/12 11:05:55;;;;;;;17.20;10.90;;;;;;;-3.17;91.44;95357.51;105574;1304;24616;-83
2022/12/12 11:08:27;;;;;;;17.50;10.20;;;;;;;-3.19;91.71;95356.90;105724;1301;23053;-82
2022/12/12 11:11:19;;;;;;;17.30;10.60;;;;;;;-3.19;92.06;95353.70;105614;1296;25558;-84
2022/12/12 11:13:53;;;;;;;17.60;12.00;;;;;;;-3.21;92.53;95352.91;105739;1302;24346;-84
2022/12/12 11:16:25;;;;;;;19.00;12.50;;;;;;;-3.15;93.00;95354.10;105753;1303;22533;-84
2022/12/12 11:19:00;;;;;;;17.00;11.10;;;;;;;-3.10;92.93;95361.09;105783;1304;22468;-82
2022/12/12 11:21:30;;;;;;;17.60;11.90;;;;;;;-3.14;92.59;95359.51;105650;1288;23780;-82
2022/12/12 11:24:00;;;;;;;18.60;12.30;;;;;;;-3.10;92.71;95356.48;105553;1296;22468;-81
2022/12/12 11:26:29;;;;;;;18.70;12.10;;;;;;;-3.11;92.57;95359.15;105565;1304;22492;-82
2022/12/12 11:29:00;;;;;;;16.60;10.60;;;;;;;-3.16;92.31;95351.17;105623;1304;25255;-83
2022/12/12 11:31:32;;;;;;;15.50;9.90;;;;;;;-3.19;92.34;95354.58;105793;1296;22452;-83
2022/12/12 11:34:05;;;;;;;17.40;11.80;;;;;;;-3.17;92.41;95356.46;105765;1304;22693;-83
2022/12/12 11:36:37;;;;;;;14.40;8.20;;;;;;;-3.20;92.60;95355.08;105695;1286;25433;-83
2022/12/12 11:39:20;;;;;;;14.60;8.80;;;;;;;-3.18;92.78;95359.67;105752;1288;26432;-82
2022/12/12 11:42:00;;;;;;;16.60;9.60;;;;;;;-3.18;92.63;95357.88;105573;1293;23051;-83
2022/12/12 11:44:34;;;;;;;15.90;10.30;;;;;;;-3.21;92.67;95355.41;105472;1297;23796;-82
2022/12/12 11:47:24;;;;;;;18.50;11.70;;;;;;;-3.25;92.76;95355.65;105532;1296;27395;-82
2022/12/12 11:49:55;;;;;;;17.70;10.50;;;;;;;-3.25;93.03;95355.97;105660;1288;29310;-83
2022/12/12 11:52:26;;;;;;;16.70;11.60;;;;;;;-3.24;92.91;95357.55;105812;1286;22494;-81
2022/12/12 11:54:58;;;;;;;14.20;8.40;;;;;;;-3.23;93.02;95361.24;105806;1300;22456;-82
2022/12/12 11:57:45;;;;;;;17.70;12.50;;;;;;;-3.27;92.97;95359.23;105706;1295;22463;-83
2022/12/12 12:00:16;;;;;;;17.20;10.10;;;;;;;-3.31;93.05;95364.60;105750;1304;22455;-83